createdAt,value
2022-12-18T00:00:12.258Z,28.05
2022-12-18T00:03:17.456Z,30.73
2022-12-18T00:06:20.683Z,19.00
2022-12-18T00:09:24.780Z,29.90
2022-12-18T00:12:26.934Z,34.88
2022-12-18T00:15:28.983Z,34.58
2022-12-18T00:18:31.144Z,30.62
2022-12-18T00:21:34.525Z,34.10
2022-12-18T00:24:36.547Z,25.13
2022-12-18T00:27:38.643Z,28.73
2022-12-18T00:30:40.685Z,32.00
2022-12-18T00:33:42.970Z,33.30
2022-12-18T00:36:45.128Z,32.35
2022-12-18T00:39:49.463Z,26.93
2022-12-18T00:42:57.584Z,34.72
2022-12-18T00:45:59.588Z,26.95
2022-12-18T00:49:01.712Z,30.70
2022-12-18T00:52:03.772Z,29.70
2022-12-18T00:55:06.689Z,6.77
2022-12-18T00:58:10.671Z,24.95
2022-12-18T01:01:12.814Z,25.67
2022-12-18T01:04:15.406Z,36.15
2022-12-18T01:07:17.584Z,31.73
2022-12-18T01:10:19.761Z,34.53
2022-12-18T01:13:21.711Z,32.15
2022-12-18T01:16:24.246Z,28.10
2022-12-18T01:19:26.342Z,23.50
2022-12-18T01:22:28.665Z,15.32
2022-12-18T01:25:30.705Z,21.60
2022-12-18T01:28:33.128Z,23.55
2022-12-18T01:31:35.739Z,30.42
2022-12-18T01:34:38.498Z,23.85
2022-12-18T01:37:40.566Z,28.10
2022-12-18T01:40:42.680Z,26.20
2022-12-18T01:43:47.322Z,25.10
2022-12-18T01:46:49.332Z,19.65
2022-12-18T01:49:51.810Z,21.25
2022-12-18T01:53:04.996Z,23.40
2022-12-18T01:56:07.711Z,20.53
2022-12-18T01:59:12.642Z,21.08
2022-12-18T02:02:15.924Z,22.30
2022-12-18T02:05:28.064Z,22.30
2022-12-18T02:08:36.889Z,20.65
2022-12-18T02:11:57.026Z,19.40
2022-12-18T02:14:59.071Z,26.80
2022-12-18T02:18:17.522Z,29.90
2022-12-18T02:21:22.493Z,18.92
2022-12-18T02:24:40.467Z,21.40
2022-12-18T02:27:45.390Z,24.60
2022-12-18T02:30:50.296Z,16.90
2022-12-18T02:33:56.452Z,19.73
2022-12-18T02:37:02.259Z,26.00
2022-12-18T02:40:06.135Z,23.23
2022-12-18T02:43:11.822Z,21.13
2022-12-18T02:46:26.380Z,19.12
2022-12-18T02:49:43.428Z,22.90
2022-12-18T02:53:10.305Z,25.25
2022-12-18T02:56:22.808Z,21.27
2022-12-18T02:59:41.795Z,32.27
2022-12-18T03:02:57.478Z,34.33
2022-12-18T03:06:26.597Z,26.00
2022-12-18T03:09:43.178Z,34.63
2022-12-18T03:13:08.577Z,30.48
2022-12-18T03:16:16.642Z,21.20
2022-12-18T03:19:23.491Z,22.95
2022-12-18T03:22:30.448Z,14.93
2022-12-18T03:25:35.456Z,33.00
2022-12-18T03:28:43.255Z,32.45
2022-12-18T03:31:50.836Z,31.50
2022-12-18T03:34:56.521Z,18.35
2022-12-18T03:37:58.811Z,32.63
2022-12-18T03:41:07.611Z,31.55
2022-12-18T03:44:41.800Z,12.43
2022-12-18T03:47:46.476Z,27.23
2022-12-18T03:50:58.437Z,24.58
2022-12-18T03:54:03.665Z,24.67
2022-12-18T03:57:16.921Z,27.20
2022-12-18T04:00:20.628Z,28.33
2022-12-18T04:03:26.556Z,19.70
2022-12-18T04:06:40.464Z,23.10
2022-12-18T04:09:44.787Z,20.23
2022-12-18T04:12:47.127Z,21.85
2022-12-18T04:15:49.324Z,20.33
2022-12-18T04:18:51.707Z,20.03
2022-12-18T04:21:57.024Z,19.02
2022-12-18T04:24:59.110Z,22.37
2022-12-18T04:28:01.159Z,19.90
2022-12-18T04:31:03.694Z,19.37
2022-12-18T04:34:05.800Z,22.93
2022-12-18T04:37:07.784Z,20.33
2022-12-18T04:40:10.607Z,24.12
2022-12-18T04:43:12.949Z,16.27
2022-12-18T04:46:15.523Z,15.13
2022-12-18T04:49:18.298Z,16.93
2022-12-18T04:52:20.317Z,17.85
2022-12-18T04:55:22.803Z,20.30
2022-12-18T04:58:25.175Z,17.62
2022-12-18T05:01:34.100Z,13.73
2022-12-18T05:04:36.835Z,20.97
2022-12-18T05:07:38.830Z,17.55
2022-12-18T05:10:40.893Z,17.73
2022-12-18T05:13:45.460Z,17.50
2022-12-18T05:16:47.628Z,18.42
2022-12-18T05:19:49.982Z,9.33
2022-12-18T05:22:52.675Z,12.68
2022-12-18T05:25:56.796Z,8.60
2022-12-18T05:28:58.842Z,14.65
2022-12-18T05:32:00.844Z,16.05
2022-12-18T05:35:03.263Z,15.33
2022-12-18T05:38:05.393Z,17.70
2022-12-18T05:41:08.793Z,22.80
2022-12-18T05:44:10.788Z,23.38
2022-12-18T05:47:12.911Z,17.45
2022-12-18T05:50:15.025Z,19.10
2022-12-18T05:53:20.475Z,20.58
2022-12-18T05:56:23.568Z,19.98
2022-12-18T05:59:25.595Z,21.12
2022-12-18T06:02:27.752Z,18.17
2022-12-18T06:05:29.879Z,19.37
2022-12-18T06:08:32.091Z,22.70
2022-12-18T06:11:34.126Z,23.58
2022-12-18T06:14:36.135Z,20.48
2022-12-18T06:17:38.407Z,20.35
2022-12-18T06:20:42.470Z,19.57
2022-12-18T06:23:44.752Z,27.37
2022-12-18T06:26:46.855Z,27.85
2022-12-18T06:29:48.875Z,20.10
2022-12-18T06:32:56.371Z,22.35
2022-12-18T06:36:09.208Z,28.67
2022-12-18T06:39:11.407Z,27.90
2022-12-18T06:42:13.808Z,28.42
2022-12-18T06:45:16.237Z,27.80
2022-12-18T06:48:18.311Z,34.20
2022-12-18T06:51:22.145Z,31.87
2022-12-18T06:54:24.162Z,34.40
2022-12-18T06:57:26.353Z,35.42
2022-12-18T07:00:28.453Z,33.87
2022-12-18T07:03:30.938Z,31.58
2022-12-18T07:06:32.998Z,35.13
2022-12-18T07:09:35.365Z,42.85
2022-12-18T07:12:37.463Z,40.70
2022-12-18T07:15:39.512Z,40.05
2022-12-18T07:18:41.634Z,37.70
2022-12-18T07:21:43.749Z,40.58
2022-12-18T07:24:45.973Z,38.30
2022-12-18T07:27:47.971Z,44.53
2022-12-18T07:30:50.039Z,40.53
2022-12-18T07:33:53.031Z,37.92
2022-12-18T07:36:55.049Z,31.80
2022-12-18T07:39:57.133Z,39.15
2022-12-18T07:42:59.274Z,39.70
2022-12-18T07:46:01.768Z,45.85
2022-12-18T07:49:03.898Z,43.10
2022-12-18T07:52:05.920Z,43.95
2022-12-18T07:55:08.498Z,36.50
2022-12-18T07:58:11.042Z,39.30
2022-12-18T08:01:13.351Z,33.67
2022-12-18T08:04:15.475Z,38.05
2022-12-18T08:07:17.467Z,31.10
2022-12-18T08:10:20.324Z,36.38
2022-12-18T08:13:22.747Z,33.93
2022-12-18T08:16:25.423Z,32.35
2022-12-18T08:19:27.524Z,40.00
2022-12-18T08:22:29.706Z,37.70
2022-12-18T08:25:31.775Z,36.78
2022-12-18T08:28:34.739Z,33.40
2022-12-18T08:31:38.404Z,33.60
2022-12-18T08:34:40.545Z,27.98
2022-12-18T08:37:42.536Z,34.30
2022-12-18T08:40:44.649Z,35.53
2022-12-18T08:44:05.641Z,31.97
2022-12-18T08:47:08.613Z,26.87
2022-12-18T08:50:10.941Z,37.33
2022-12-18T08:53:13.222Z,33.97
2022-12-18T08:56:15.632Z,29.45
2022-12-18T08:59:20.111Z,23.37
2022-12-18T09:02:23.004Z,26.97
2022-12-18T09:05:25.352Z,18.60
2022-12-18T09:08:28.265Z,24.30
2022-12-18T09:11:31.053Z,21.62
2022-12-18T09:14:33.208Z,20.60
2022-12-18T09:17:35.272Z,16.63
2022-12-18T09:20:38.574Z,13.50
2022-12-18T09:23:40.941Z,18.33
2022-12-18T09:26:43.475Z,20.10
2022-12-18T09:29:48.993Z,21.33
2022-12-18T09:32:51.197Z,12.80
2022-12-18T09:35:53.297Z,17.95
2022-12-18T09:38:55.854Z,17.58
2022-12-18T09:42:00.001Z,21.80
2022-12-18T09:45:03.563Z,24.53
2022-12-18T09:48:08.255Z,19.67
2022-12-18T09:51:27.535Z,18.67
2022-12-18T09:54:41.778Z,17.70
2022-12-18T09:57:52.437Z,20.95
2022-12-18T10:00:55.371Z,19.83
2022-12-18T10:03:57.986Z,20.87
2022-12-18T10:07:13.115Z,17.62
2022-12-18T10:10:44.385Z,19.05
2022-12-18T10:14:18.623Z,20.10
2022-12-18T10:17:40.081Z,22.70
2022-12-18T10:20:54.112Z,21.47
2022-12-18T10:24:14.798Z,21.20
2022-12-18T10:27:22.572Z,20.15
2022-12-18T10:30:26.259Z,21.05
2022-12-18T10:33:31.338Z,21.70
2022-12-18T10:36:33.354Z,17.50
2022-12-18T10:39:35.430Z,16.85
2022-12-18T10:42:37.532Z,22.17
2022-12-18T10:45:40.561Z,21.87
2022-12-18T10:48:53.957Z,20.33
2022-12-18T10:52:26.819Z,21.80
2022-12-18T10:55:34.592Z,21.75
2022-12-18T10:58:38.844Z,20.20
2022-12-18T11:01:47.146Z,22.85
2022-12-18T11:04:53.639Z,18.57
2022-12-18T11:07:57.324Z,21.37
2022-12-18T11:10:59.622Z,22.23
2022-12-18T11:14:07.950Z,22.48
2022-12-18T11:17:26.669Z,21.90
2022-12-18T11:20:34.659Z,19.77
2022-12-18T11:23:38.679Z,16.00
2022-12-18T11:26:41.176Z,23.17
2022-12-18T11:29:46.538Z,20.33
2022-12-18T11:32:58.255Z,15.57
2022-12-18T11:36:06.558Z,15.10
2022-12-18T11:39:21.000Z,13.63
2022-12-18T11:42:49.398Z,15.98
2022-12-18T11:45:55.638Z,12.88
2022-12-18T11:49:26.767Z,15.60
2022-12-18T11:52:39.311Z,16.23
2022-12-18T11:55:56.431Z,15.77
2022-12-18T11:59:09.218Z,9.07
2022-12-18T12:02:29.702Z,14.30
2022-12-18T12:05:52.027Z,16.50
2022-12-18T12:09:06.163Z,14.10
2022-12-18T12:12:17.146Z,15.23
2022-12-18T12:15:19.180Z,12.15
2022-12-18T12:18:34.439Z,12.15
2022-12-18T12:21:46.218Z,14.25
2022-12-18T12:25:16.257Z,12.73
2022-12-18T12:29:04.173Z,12.53
2022-12-18T12:32:36.049Z,14.45
2022-12-18T12:36:15.786Z,12.32
2022-12-18T12:39:24.718Z,10.93
2022-12-18T12:42:57.967Z,13.70
2022-12-18T12:46:10.005Z,11.87
2022-12-18T12:49:18.711Z,12.90
2022-12-18T12:52:26.947Z,12.93
2022-12-18T12:55:30.964Z,13.38
2022-12-18T12:58:48.281Z,14.57
2022-12-18T13:02:24.218Z,12.77
2022-12-18T13:05:47.324Z,16.45
2022-12-18T13:09:01.207Z,15.88
2022-12-18T13:12:33.336Z,13.55
2022-12-18T13:15:39.821Z,13.03
2022-12-18T13:19:11.969Z,13.53
2022-12-18T13:22:36.566Z,15.02
2022-12-18T13:25:39.391Z,14.60
2022-12-18T13:28:48.360Z,14.05
2022-12-18T13:31:50.373Z,13.67
2022-12-18T13:35:18.515Z,11.90
2022-12-18T13:38:32.425Z,16.80
2022-12-18T13:41:35.058Z,14.87
2022-12-18T13:44:42.400Z,16.25
2022-12-18T13:47:45.003Z,13.00
2022-12-18T13:51:17.862Z,15.37
2022-12-18T13:54:41.812Z,17.70
2022-12-18T13:57:44.084Z,13.18
2022-12-18T14:00:46.423Z,12.63
2022-12-18T14:03:48.935Z,14.60
2022-12-18T14:06:57.425Z,14.03
2022-12-18T14:10:12.598Z,14.23
2022-12-18T14:13:38.521Z,14.80
2022-12-18T14:16:42.522Z,16.65
2022-12-18T14:19:51.453Z,17.83
2022-12-18T14:22:53.831Z,13.73
2022-12-18T14:25:58.569Z,13.57
2022-12-18T14:29:20.848Z,13.95
2022-12-18T14:32:23.915Z,15.43
2022-12-18T14:35:25.962Z,15.73
2022-12-18T14:38:29.913Z,17.57
2022-12-18T14:41:34.217Z,15.45
2022-12-18T14:44:50.544Z,18.42
2022-12-18T14:47:58.949Z,19.87
2022-12-18T14:51:08.069Z,17.47
2022-12-18T14:54:18.715Z,16.80
2022-12-18T14:57:38.973Z,19.35
2022-12-18T15:00:46.476Z,19.12
2022-12-18T15:03:49.317Z,22.87
2022-12-18T15:07:05.821Z,21.07
2022-12-18T15:10:16.452Z,24.43
2022-12-18T15:13:25.981Z,25.42
2022-12-18T15:16:29.345Z,27.80
2022-12-18T15:19:43.261Z,28.90
2022-12-18T15:22:50.992Z,25.77
2022-12-18T15:25:58.393Z,30.97
2022-12-18T15:29:04.674Z,30.90
2022-12-18T15:32:24.441Z,29.00
2022-12-18T15:35:27.468Z,18.37
2022-12-18T15:38:30.650Z,21.97
2022-12-18T15:41:38.138Z,22.92
2022-12-18T15:44:41.313Z,28.85
2022-12-18T15:47:44.480Z,20.55
2022-12-18T15:50:48.364Z,26.67
2022-12-18T15:53:53.976Z,20.47
2022-12-18T15:57:15.234Z,22.30
2022-12-18T16:00:18.519Z,25.67
2022-12-18T16:03:21.411Z,34.38
2022-12-18T16:06:24.973Z,20.60
2022-12-18T16:09:30.945Z,24.03
2022-12-18T16:12:35.485Z,24.48
2022-12-18T16:15:39.170Z,16.42
2022-12-18T16:18:43.485Z,21.17
2022-12-18T16:21:48.002Z,23.52
2022-12-18T16:24:54.154Z,27.17
2022-12-18T16:27:58.829Z,24.15
2022-12-18T16:31:02.904Z,26.65
2022-12-18T16:34:36.296Z,19.65
2022-12-18T16:37:40.461Z,28.05
2022-12-18T16:41:03.638Z,24.03
2022-12-18T16:44:06.268Z,31.25
2022-12-18T16:47:08.789Z,27.70
2022-12-18T16:50:14.893Z,29.50
2022-12-18T16:53:17.959Z,25.70
2022-12-18T16:56:21.843Z,24.30
2022-12-18T16:59:27.567Z,28.25
2022-12-18T17:02:32.328Z,24.95
2022-12-18T17:05:37.189Z,24.67
2022-12-18T17:08:41.395Z,24.60
2022-12-18T17:11:48.699Z,27.47
2022-12-18T17:14:51.937Z,27.67
2022-12-18T17:17:55.140Z,29.02
2022-12-18T17:21:19.367Z,26.70
2022-12-18T17:24:23.555Z,27.92
2022-12-18T17:27:26.674Z,29.43
2022-12-18T17:30:30.620Z,31.87
2022-12-18T17:33:36.526Z,30.52
2022-12-18T17:36:39.753Z,33.92
2022-12-18T17:39:44.542Z,32.15
2022-12-18T17:42:48.904Z,30.37
2022-12-18T17:45:52.074Z,29.92
2022-12-18T17:48:59.734Z,40.30
2022-12-18T17:52:02.928Z,56.80
2022-12-18T17:55:06.461Z,44.03
2022-12-18T17:58:09.663Z,40.27
2022-12-18T18:01:18.431Z,41.33
2022-12-18T18:04:21.159Z,39.72
2022-12-18T18:07:23.994Z,41.92
2022-12-18T18:10:28.303Z,31.27
2022-12-18T18:13:50.728Z,36.30
2022-12-18T18:16:53.911Z,35.80
2022-12-18T18:19:58.253Z,39.60
2022-12-18T18:23:01.132Z,36.92
2022-12-18T18:26:09.867Z,31.92
2022-12-18T18:29:20.575Z,32.80
2022-12-18T18:32:23.727Z,29.80
2022-12-18T18:35:53.045Z,33.63
2022-12-18T18:38:51.041Z,34.70
2022-12-18T18:41:54.091Z,32.13
2022-12-18T18:44:57.044Z,30.57
2022-12-18T18:48:00.618Z,32.65
2022-12-18T18:51:07.440Z,37.97
2022-12-18T18:54:11.480Z,36.55
2022-12-18T18:57:24.260Z,31.98
2022-12-18T19:00:29.399Z,29.57
2022-12-18T19:03:33.048Z,29.60
2022-12-18T19:06:35.976Z,32.42
2022-12-18T19:09:38.943Z,24.85
2022-12-18T19:13:00.088Z,32.03
2022-12-18T19:16:08.013Z,29.60
2022-12-18T19:19:13.451Z,27.08
2022-12-18T19:22:17.196Z,25.15
2022-12-18T19:25:19.813Z,31.00
2022-12-18T19:28:26.848Z,29.93
2022-12-18T19:31:35.256Z,27.13
2022-12-18T19:34:40.278Z,26.30
2022-12-18T19:37:43.054Z,20.90
2022-12-18T19:40:45.946Z,29.17
2022-12-18T19:43:49.820Z,24.60
2022-12-18T19:46:52.543Z,27.67
2022-12-18T19:49:55.364Z,23.48
2022-12-18T19:52:59.576Z,28.12
2022-12-18T19:56:12.550Z,25.83
2022-12-18T19:59:16.843Z,26.65
2022-12-18T20:02:22.180Z,30.75
2022-12-18T20:05:25.966Z,25.85
2022-12-18T20:08:30.171Z,31.10
2022-12-18T20:11:41.666Z,31.23
2022-12-18T20:14:45.494Z,32.67
2022-12-18T20:17:48.674Z,38.88
2022-12-18T20:20:55.217Z,27.98
2022-12-18T20:24:01.479Z,18.80
2022-12-18T20:27:04.700Z,23.67
2022-12-18T20:30:08.761Z,32.78
2022-12-18T20:33:11.260Z,30.17
2022-12-18T20:36:20.149Z,30.25
2022-12-18T20:39:27.072Z,35.78
2022-12-18T20:42:29.622Z,33.23
2022-12-18T20:45:31.760Z,33.22
2022-12-18T20:48:34.416Z,32.10
2022-12-18T20:51:37.413Z,30.30
2022-12-18T20:54:40.435Z,31.17
2022-12-18T20:57:42.823Z,30.43
2022-12-18T21:00:45.257Z,28.62
2022-12-18T21:03:49.371Z,31.27
2022-12-18T21:06:55.842Z,30.27
2022-12-18T21:10:04.933Z,31.07
2022-12-18T21:13:08.715Z,27.65
2022-12-18T21:16:12.375Z,30.00
2022-12-18T21:19:17.872Z,31.17
2022-12-18T21:22:20.192Z,24.95
2022-12-18T21:25:22.482Z,23.70
2022-12-18T21:28:24.531Z,31.98
2022-12-18T21:31:29.307Z,32.22
2022-12-18T21:34:33.336Z,28.98
2022-12-18T21:37:35.489Z,31.43
2022-12-18T21:40:39.438Z,28.67
2022-12-18T21:44:00.181Z,24.45
2022-12-18T21:47:12.280Z,24.87
2022-12-18T21:50:24.585Z,21.33
2022-12-18T21:53:26.674Z,24.40
2022-12-18T21:56:51.372Z,27.13
2022-12-18T21:59:53.566Z,30.08
2022-12-18T22:03:10.465Z,27.92
2022-12-18T22:06:19.617Z,30.47
2022-12-18T22:09:24.208Z,24.80
2022-12-18T22:12:35.811Z,24.77
2022-12-18T22:15:46.013Z,26.48
2022-12-18T22:18:48.489Z,29.90
2022-12-18T22:21:51.248Z,29.50
2022-12-18T22:24:53.382Z,27.73
2022-12-18T22:28:13.955Z,24.25
2022-12-18T22:31:17.058Z,31.00
2022-12-18T22:34:22.851Z,27.15
2022-12-18T22:37:25.390Z,27.75
2022-12-18T22:40:28.234Z,29.73
2022-12-18T22:43:30.425Z,28.40
2022-12-18T22:46:37.951Z,27.43
2022-12-18T22:49:40.052Z,31.25
2022-12-18T22:52:42.556Z,33.78
2022-12-18T22:55:44.624Z,30.92
2022-12-18T22:58:51.484Z,25.30
2022-12-18T23:01:58.564Z,28.05
2022-12-18T23:05:00.997Z,30.10
2022-12-18T23:08:04.486Z,30.75
2022-12-18T23:11:06.973Z,28.33
2022-12-18T23:14:09.068Z,32.00
2022-12-18T23:17:11.969Z,36.35
2022-12-18T23:20:14.203Z,31.67
2022-12-18T23:23:16.218Z,40.83
2022-12-18T23:26:27.694Z,49.78
2022-12-18T23:29:29.807Z,30.50
2022-12-18T23:32:31.836Z,37.88
2022-12-18T23:35:35.645Z,37.67
2022-12-18T23:38:38.077Z,34.72
2022-12-18T23:41:40.291Z,39.85
2022-12-18T23:44:42.530Z,24.50
2022-12-18T23:47:44.622Z,30.77
2022-12-18T23:50:49.227Z,32.70
2022-12-18T23:53:52.468Z,32.30
2022-12-18T23:56:54.493Z,25.95
2022-12-18T23:59:56.625Z,47.10
